sensor_id;sensor_type;location;lat;lon;timestamp;temperature;humidity
42913;DHT22;50720;54.324;18.558;2022-07-24T00:00:18;15.80;99.90
42913;DHT22;50720;54.324;18.558;2022-07-24T00:03:03;15.80;99.90
42913;DHT22;50720;54.324;18.558;2022-07-24T00:05:35;15.80;99.90
42913;DHT22;50720;54.324;18.558;2022-07-24T00:08:05;15.80;99.90
42913;DHT22;50720;54.324;18.558;2022-07-24T00:10:37;15.90;99.90
42913;DHT22;50720;54.324;18.558;2022-07-24T00:13:07;15.90;99.90
42913;DHT22;50720;54.324;18.558;2022-07-24T00:15:37;15.90;99.90
42913;DHT22;50720;54.324;18.558;2022-07-24T00:18:07;15.90;99.90
42913;DHT22;50720;54.324;18.558;2022-07-24T00:20:36;15.90;99.90
42913;DHT22;50720;54.324;18.558;2022-07-24T00:23:06;15.90;99.90
42913;DHT22;50720;54.324;18.558;2022-07-24T00:25:37;15.90;99.90
42913;DHT22;50720;54.324;18.558;2022-07-24T00:28:07;15.90;99.90
42913;DHT22;50720;54.324;18.558;2022-07-24T00:30:37;15.90;99.90
42913;DHT22;50720;54.324;18.558;2022-07-24T00:33:07;15.80;99.90
42913;DHT22;50720;54.324;18.558;2022-07-24T00:35:37;15.90;99.90
42913;DHT22;50720;54.324;18.558;2022-07-24T00:38:06;15.90;99.90
42913;DHT22;50720;54.324;18.558;2022-07-24T00:40:39;15.90;99.90
42913;DHT22;50720;54.324;18.558;2022-07-24T00:43:09;15.90;99.90
42913;DHT22;50720;54.324;18.558;2022-07-24T00:45:40;15.90;99.90
42913;DHT22;50720;54.324;18.558;2022-07-24T00:48:11;15.90;99.90
42913;DHT22;50720;54.324;18.558;2022-07-24T00:50:41;16.00;99.90
42913;DHT22;50720;54.324;18.558;2022-07-24T00:53:10;16.00;99.90
42913;DHT22;50720;54.324;18.558;2022-07-24T00:55:42;16.10;99.90
42913;DHT22;50720;54.324;18.558;2022-07-24T00:58:12;16.00;99.90
42913;DHT22;50720;54.324;18.558;2022-07-24T01:00:43;16.00;99.90
42913;DHT22;50720;54.324;18.558;2022-07-24T01:03:12;15.90;99.90
42913;DHT22;50720;54.324;18.558;2022-07-24T01:05:42;16.00;99.90
42913;DHT22;50720;54.324;18.558;2022-07-24T01:08:12;15.90;99.90
42913;DHT22;50720;54.324;18.558;2022-07-24T01:10:44;15.90;99.90
42913;DHT22;50720;54.324;18.558;2022-07-24T01:13:14;15.90;99.90
42913;DHT22;50720;54.324;18.558;2022-07-24T01:15:45;15.90;99.90
42913;DHT22;50720;54.324;18.558;2022-07-24T01:18:16;15.90;99.90
42913;DHT22;50720;54.324;18.558;2022-07-24T01:20:47;15.90;99.90
42913;DHT22;50720;54.324;18.558;2022-07-24T01:23:17;15.80;99.90
42913;DHT22;50720;54.324;18.558;2022-07-24T01:25:47;15.80;99.90
42913;DHT22;50720;54.324;18.558;2022-07-24T01:28:16;15.80;99.90
42913;DHT22;50720;54.324;18.558;2022-07-24T01:30:47;15.90;99.90
42913;DHT22;50720;54.324;18.558;2022-07-24T01:33:16;15.80;99.90
42913;DHT22;50720;54.324;18.558;2022-07-24T01:35:48;15.80;99.90
42913;DHT22;50720;54.324;18.558;2022-07-24T01:38:20;15.80;99.90
42913;DHT22;50720;54.324;18.558;2022-07-24T01:40:50;15.80;99.90
42913;DHT22;50720;54.324;18.558;2022-07-24T01:43:20;15.90;99.90
42913;DHT22;50720;54.324;18.558;2022-07-24T01:45:50;15.80;99.90
42913;DHT22;50720;54.324;18.558;2022-07-24T01:48:19;15.80;99.90
42913;DHT22;50720;54.324;18.558;2022-07-24T01:50:50;15.80;99.90
42913;DHT22;50720;54.324;18.558;2022-07-24T01:53:21;15.80;99.90
42913;DHT22;50720;54.324;18.558;2022-07-24T01:55:50;15.70;99.90
42913;DHT22;50720;54.324;18.558;2022-07-24T01:58:20;15.80;99.90
42913;DHT22;50720;54.324;18.558;2022-07-24T02:00:50;15.80;99.90
42913;DHT22;50720;54.324;18.558;2022-07-24T02:03:20;15.80;99.90
42913;DHT22;50720;54.324;18.558;2022-07-24T02:05:52;15.80;99.90
42913;DHT22;50720;54.324;18.558;2022-07-24T02:08:22;15.80;99.90
42913;DHT22;50720;54.324;18.558;2022-07-24T02:10:52;15.80;99.90
42913;DHT22;50720;54.324;18.558;2022-07-24T02:13:22;15.90;99.90
42913;DHT22;50720;54.324;18.558;2022-07-24T02:15:57;15.80;99.90
42913;DHT22;50720;54.324;18.558;2022-07-24T02:18:27;15.80;99.90
42913;DHT22;50720;54.324;18.558;2022-07-24T02:20:58;15.80;99.90
42913;DHT22;50720;54.324;18.558;2022-07-24T02:23:27;15.80;99.90
42913;DHT22;50720;54.324;18.558;2022-07-24T02:25:57;15.90;99.90
42913;DHT22;50720;54.324;18.558;2022-07-24T02:28:26;15.90;99.90
42913;DHT22;50720;54.324;18.558;2022-07-24T02:30:56;15.90;99.90
42913;DHT22;50720;54.324;18.558;2022-07-24T02:33:25;15.90;99.90
42913;DHT22;50720;54.324;18.558;2022-07-24T02:35:56;16.00;99.90
42913;DHT22;50720;54.324;18.558;2022-07-24T02:38:26;16.00;99.90
42913;DHT22;50720;54.324;18.558;2022-07-24T02:40:56;16.00;99.90
42913;DHT22;50720;54.324;18.558;2022-07-24T02:43:26;16.00;99.90
42913;DHT22;50720;54.324;18.558;2022-07-24T02:45:56;15.90;99.90
42913;DHT22;50720;54.324;18.558;2022-07-24T02:48:25;15.90;99.90
42913;DHT22;50720;54.324;18.558;2022-07-24T02:50:57;15.80;99.90
42913;DHT22;50720;54.324;18.558;2022-07-24T02:53:27;15.80;99.90
42913;DHT22;50720;54.324;18.558;2022-07-24T02:55:57;15.90;99.90
42913;DHT22;50720;54.324;18.558;2022-07-24T02:58:27;15.90;99.90
42913;DHT22;50720;54.324;18.558;2022-07-24T03:00:57;15.90;99.90
42913;DHT22;50720;54.324;18.558;2022-07-24T03:03:27;15.90;99.90
42913;DHT22;50720;54.324;18.558;2022-07-24T03:05:58;16.00;99.90
42913;DHT22;50720;54.324;18.558;2022-07-24T03:08:28;16.00;99.90
42913;DHT22;50720;54.324;18.558;2022-07-24T03:10:57;16.10;99.90
42913;DHT22;50720;54.324;18.558;2022-07-24T03:13:27;16.10;99.90
42913;DHT22;50720;54.324;18.558;2022-07-24T03:15:57;16.10;99.90
42913;DHT22;50720;54.324;18.558;2022-07-24T03:18:27;16.00;99.90
42913;DHT22;50720;54.324;18.558;2022-07-24T03:20:58;16.00;99.90
42913;DHT22;50720;54.324;18.558;2022-07-24T03:23:28;16.10;99.90
42913;DHT22;50720;54.324;18.558;2022-07-24T03:25:57;16.20;99.90
42913;DHT22;50720;54.324;18.558;2022-07-24T03:28:27;16.10;99.90
42913;DHT22;50720;54.324;18.558;2022-07-24T03:30:57;16.20;99.90
42913;DHT22;50720;54.324;18.558;2022-07-24T03:33:28;16.20;99.90
42913;DHT22;50720;54.324;18.558;2022-07-24T03:36:00;16.20;99.90
42913;DHT22;50720;54.324;18.558;2022-07-24T03:38:29;16.20;99.90
42913;DHT22;50720;54.324;18.558;2022-07-24T03:41:00;16.10;99.90
42913;DHT22;50720;54.324;18.558;2022-07-24T03:43:30;16.20;99.90
42913;DHT22;50720;54.324;18.558;2022-07-24T03:45:59;16.30;99.90
42913;DHT22;50720;54.324;18.558;2022-07-24T03:48:30;16.30;99.90
42913;DHT22;50720;54.324;18.558;2022-07-24T03:51:01;16.30;99.90
42913;DHT22;50720;54.324;18.558;2022-07-24T03:53:31;16.40;99.90
42913;DHT22;50720;54.324;18.558;2022-07-24T03:56:04;16.40;99.90
42913;DHT22;50720;54.324;18.558;2022-07-24T03:58:35;16.40;99.90
42913;DHT22;50720;54.324;18.558;2022-07-24T04:01:06;16.50;99.90
42913;DHT22;50720;54.324;18.558;2022-07-24T04:03:36;16.50;99.90
42913;DHT22;50720;54.324;18.558;2022-07-24T04:06:08;16.60;99.90
42913;DHT22;50720;54.324;18.558;2022-07-24T04:08:38;16.50;99.90
42913;DHT22;50720;54.324;18.558;2022-07-24T04:11:08;16.60;99.90
42913;DHT22;50720;54.324;18.558;2022-07-24T04:13:37;16.60;99.90
42913;DHT22;50720;54.324;18.558;2022-07-24T04:16:10;16.60;99.90
42913;DHT22;50720;54.324;18.558;2022-07-24T04:18:40;16.60;99.90
42913;DHT22;50720;54.324;18.558;2022-07-24T04:21:11;16.60;99.90
42913;DHT22;50720;54.324;18.558;2022-07-24T04:23:41;16.60;99.90
42913;DHT22;50720;54.324;18.558;2022-07-24T04:26:11;16.60;99.90
42913;DHT22;50720;54.324;18.558;2022-07-24T04:28:41;16.60;99.90
42913;DHT22;50720;54.324;18.558;2022-07-24T04:31:11;16.50;99.90
42913;DHT22;50720;54.324;18.558;2022-07-24T04:33:41;16.60;99.90
42913;DHT22;50720;54.324;18.558;2022-07-24T04:36:13;16.60;99.90
42913;DHT22;50720;54.324;18.558;2022-07-24T04:38:43;16.60;99.90
42913;DHT22;50720;54.324;18.558;2022-07-24T04:41:13;16.60;99.90
42913;DHT22;50720;54.324;18.558;2022-07-24T04:43:46;16.60;99.90
42913;DHT22;50720;54.324;18.558;2022-07-24T04:46:16;16.60;99.90
42913;DHT22;50720;54.324;18.558;2022-07-24T04:48:46;16.60;99.90
42913;DHT22;50720;54.324;18.558;2022-07-24T04:51:18;16.60;99.90
42913;DHT22;50720;54.324;18.558;2022-07-24T04:53:47;16.70;99.90
42913;DHT22;50720;54.324;18.558;2022-07-24T04:56:21;16.70;99.90
42913;DHT22;50720;54.324;18.558;2022-07-24T04:58:51;16.80;99.90
42913;DHT22;50720;54.324;18.558;2022-07-24T05:01:22;16.80;99.90
42913;DHT22;50720;54.324;18.558;2022-07-24T05:03:51;17.00;99.90
42913;DHT22;50720;54.324;18.558;2022-07-24T05:06:26;17.00;99.90
42913;DHT22;50720;54.324;18.558;2022-07-24T05:08:56;17.10;99.90
42913;DHT22;50720;54.324;18.558;2022-07-24T05:11:26;17.10;99.90
42913;DHT22;50720;54.324;18.558;2022-07-24T05:13:56;17.10;99.90
42913;DHT22;50720;54.324;18.558;2022-07-24T05:16:27;17.20;99.90
42913;DHT22;50720;54.324;18.558;2022-07-24T05:18:56;17.20;99.90
42913;DHT22;50720;54.324;18.558;2022-07-24T05:21:28;17.30;99.90
42913;DHT22;50720;54.324;18.558;2022-07-24T05:23:59;17.30;99.90
42913;DHT22;50720;54.324;18.558;2022-07-24T05:26:30;17.40;99.90
42913;DHT22;50720;54.324;18.558;2022-07-24T05:29:03;17.50;99.90
42913;DHT22;50720;54.324;18.558;2022-07-24T05:31:35;17.60;99.90
42913;DHT22;50720;54.324;18.558;2022-07-24T05:34:08;17.70;99.90
42913;DHT22;50720;54.324;18.558;2022-07-24T05:36:40;17.80;99.90
42913;DHT22;50720;54.324;18.558;2022-07-24T05:39:10;18.00;99.90
42913;DHT22;50720;54.324;18.558;2022-07-24T05:41:40;18.10;99.90
42913;DHT22;50720;54.324;18.558;2022-07-24T05:44:09;18.00;99.90
42913;DHT22;50720;54.324;18.558;2022-07-24T05:46:39;18.00;99.90
42913;DHT22;50720;54.324;18.558;2022-07-24T05:49:08;17.90;99.90
42913;DHT22;50720;54.324;18.558;2022-07-24T05:51:40;17.80;99.90
42913;DHT22;50720;54.324;18.558;2022-07-24T05:54:11;17.80;99.90
42913;DHT22;50720;54.324;18.558;2022-07-24T05:56:40;17.80;99.90
42913;DHT22;50720;54.324;18.558;2022-07-24T05:59:10;17.80;99.90
42913;DHT22;50720;54.324;18.558;2022-07-24T06:01:41;17.70;99.90
42913;DHT22;50720;54.324;18.558;2022-07-24T06:04:11;17.60;99.90
42913;DHT22;50720;54.324;18.558;2022-07-24T06:06:42;17.70;99.90
42913;DHT22;50720;54.324;18.558;2022-07-24T06:09:12;17.60;99.90
42913;DHT22;50720;54.324;18.558;2022-07-24T06:11:42;17.60;99.90
42913;DHT22;50720;54.324;18.558;2022-07-24T06:14:11;17.70;99.90
42913;DHT22;50720;54.324;18.558;2022-07-24T06:16:41;17.80;99.90
42913;DHT22;50720;54.324;18.558;2022-07-24T06:19:12;17.90;99.90
42913;DHT22;50720;54.324;18.558;2022-07-24T06:21:43;17.90;99.90
42913;DHT22;50720;54.324;18.558;2022-07-24T06:24:13;18.00;99.90
42913;DHT22;50720;54.324;18.558;2022-07-24T06:26:42;18.00;99.90
42913;DHT22;50720;54.324;18.558;2022-07-24T06:29:33;18.00;99.90
42913;DHT22;50720;54.324;18.558;2022-07-24T06:32:03;18.00;99.90
42913;DHT22;50720;54.324;18.558;2022-07-24T06:34:33;18.00;99.90
42913;DHT22;50720;54.324;18.558;2022-07-24T06:37:04;18.10;99.90
42913;DHT22;50720;54.324;18.558;2022-07-24T06:39:34;18.10;99.90
42913;DHT22;50720;54.324;18.558;2022-07-24T06:42:04;18.30;99.90
42913;DHT22;50720;54.324;18.558;2022-07-24T06:44:33;18.40;99.90
42913;DHT22;50720;54.324;18.558;2022-07-24T06:47:04;18.50;99.90
42913;DHT22;50720;54.324;18.558;2022-07-24T06:49:33;18.60;99.90
42913;DHT22;50720;54.324;18.558;2022-07-24T06:52:05;18.60;99.90
42913;DHT22;50720;54.324;18.558;2022-07-24T06:54:35;18.80;99.90
42913;DHT22;50720;54.324;18.558;2022-07-24T06:57:05;18.80;99.90
42913;DHT22;50720;54.324;18.558;2022-07-24T06:59:34;18.80;99.90
42913;DHT22;50720;54.324;18.558;2022-07-24T07:02:04;19.00;99.90
42913;DHT22;50720;54.324;18.558;2022-07-24T07:04:34;19.00;99.90
42913;DHT22;50720;54.324;18.558;2022-07-24T07:07:05;19.00;99.90
42913;DHT22;50720;54.324;18.558;2022-07-24T07:09:36;19.00;99.90
42913;DHT22;50720;54.324;18.558;2022-07-24T07:12:06;19.00;99.90
42913;DHT22;50720;54.324;18.558;2022-07-24T07:14:37;19.00;99.90
42913;DHT22;50720;54.324;18.558;2022-07-24T07:17:07;19.00;99.90
42913;DHT22;50720;54.324;18.558;2022-07-24T07:19:36;19.00;99.90
42913;DHT22;50720;54.324;18.558;2022-07-24T07:22:08;19.10;99.90
42913;DHT22;50720;54.324;18.558;2022-07-24T07:24:38;19.20;99.90
42913;DHT22;50720;54.324;18.558;2022-07-24T07:27:13;19.20;99.90
42913;DHT22;50720;54.324;18.558;2022-07-24T07:29:42;19.10;99.90
42913;DHT22;50720;54.324;18.558;2022-07-24T07:32:12;19.20;99.90
42913;DHT22;50720;54.324;18.558;2022-07-24T07:34:42;19.10;99.90
42913;DHT22;50720;54.324;18.558;2022-07-24T07:37:13;19.00;99.90
42913;DHT22;50720;54.324;18.558;2022-07-24T07:39:43;19.00;99.90
42913;DHT22;50720;54.324;18.558;2022-07-24T07:42:13;19.00;99.90
42913;DHT22;50720;54.324;18.558;2022-07-24T07:44:42;19.10;99.90
42913;DHT22;50720;54.324;18.558;2022-07-24T07:47:12;19.10;99.90
42913;DHT22;50720;54.324;18.558;2022-07-24T07:49:42;19.00;99.90
42913;DHT22;50720;54.324;18.558;2022-07-24T07:52:13;18.90;99.90
42913;DHT22;50720;54.324;18.558;2022-07-24T07:54:43;19.00;99.90
42913;DHT22;50720;54.324;18.558;2022-07-24T07:57:13;19.00;99.90
42913;DHT22;50720;54.324;18.558;2022-07-24T07:59:42;19.00;99.90
42913;DHT22;50720;54.324;18.558;2022-07-24T08:02:13;19.10;99.90
42913;DHT22;50720;54.324;18.558;2022-07-24T08:04:43;19.20;99.90
42913;DHT22;50720;54.324;18.558;2022-07-24T08:07:15;19.00;99.90
42913;DHT22;50720;54.324;18.558;2022-07-24T08:09:45;18.90;99.90
42913;DHT22;50720;54.324;18.558;2022-07-24T08:12:15;18.80;99.90
42913;DHT22;50720;54.324;18.558;2022-07-24T08:14:45;18.80;99.90
42913;DHT22;50720;54.324;18.558;2022-07-24T08:17:14;18.70;99.90
42913;DHT22;50720;54.324;18.558;2022-07-24T08:19:44;18.70;99.90
42913;DHT22;50720;54.324;18.558;2022-07-24T08:22:16;18.70;99.90
42913;DHT22;50720;54.324;18.558;2022-07-24T08:24:46;18.70;99.90
42913;DHT22;50720;54.324;18.558;2022-07-24T08:27:15;18.80;99.90
42913;DHT22;50720;54.324;18.558;2022-07-24T08:29:45;18.90;99.90
42913;DHT22;50720;54.324;18.558;2022-07-24T08:32:15;19.00;99.90
42913;DHT22;50720;54.324;18.558;2022-07-24T08:34:45;19.00;99.90
42913;DHT22;50720;54.324;18.558;2022-07-24T08:37:18;19.10;99.90
42913;DHT22;50720;54.324;18.558;2022-07-24T08:39:49;19.30;99.90
42913;DHT22;50720;54.324;18.558;2022-07-24T08:42:18;19.40;99.90
42913;DHT22;50720;54.324;18.558;2022-07-24T08:44:48;19.30;99.90
42913;DHT22;50720;54.324;18.558;2022-07-24T08:47:18;19.10;99.90
42913;DHT22;50720;54.324;18.558;2022-07-24T08:49:53;19.00;99.90
42913;DHT22;50720;54.324;18.558;2022-07-24T08:52:26;19.00;99.90
42913;DHT22;50720;54.324;18.558;2022-07-24T08:54:55;19.00;99.90
42913;DHT22;50720;54.324;18.558;2022-07-24T08:57:25;19.10;99.90
42913;DHT22;50720;54.324;18.558;2022-07-24T08:59:54;19.00;99.90
42913;DHT22;50720;54.324;18.558;2022-07-24T09:02:24;18.90;99.90
42913;DHT22;50720;54.324;18.558;2022-07-24T09:05:00;18.80;99.90
42913;DHT22;50720;54.324;18.558;2022-07-24T09:07:31;18.60;99.90
42913;DHT22;50720;54.324;18.558;2022-07-24T09:10:03;18.50;99.90
42913;DHT22;50720;54.324;18.558;2022-07-24T09:12:34;18.50;99.90
42913;DHT22;50720;54.324;18.558;2022-07-24T09:15:11;18.40;99.90
42913;DHT22;50720;54.324;18.558;2022-07-24T09:17:48;18.50;99.90
42913;DHT22;50720;54.324;18.558;2022-07-24T09:20:19;18.50;99.90
42913;DHT22;50720;54.324;18.558;2022-07-24T09:22:50;18.50;99.90
42913;DHT22;50720;54.324;18.558;2022-07-24T09:25:22;18.40;99.90
42913;DHT22;50720;54.324;18.558;2022-07-24T09:27:53;18.40;99.90
42913;DHT22;50720;54.324;18.558;2022-07-24T09:30:26;18.60;99.90
42913;DHT22;50720;54.324;18.558;2022-07-24T09:32:58;18.90;99.90
42913;DHT22;50720;54.324;18.558;2022-07-24T09:35:33;19.20;99.90
42913;DHT22;50720;54.324;18.558;2022-07-24T09:38:07;19.50;99.90
42913;DHT22;50720;54.324;18.558;2022-07-24T09:40:39;19.60;99.90
42913;DHT22;50720;54.324;18.558;2022-07-24T09:43:13;19.90;99.90
42913;DHT22;50720;54.324;18.558;2022-07-24T09:45:56;20.00;99.90
42913;DHT22;50720;54.324;18.558;2022-07-24T09:48:28;20.00;99.90
42913;DHT22;50720;54.324;18.558;2022-07-24T09:51:01;20.00;99.90
42913;DHT22;50720;54.324;18.558;2022-07-24T09:53:33;19.90;99.90
42913;DHT22;50720;54.324;18.558;2022-07-24T09:56:10;19.80;99.90
42913;DHT22;50720;54.324;18.558;2022-07-24T09:58:47;19.80;99.90
42913;DHT22;50720;54.324;18.558;2022-07-24T10:01:20;19.80;99.90
42913;DHT22;50720;54.324;18.558;2022-07-24T10:03:52;20.00;99.90
42913;DHT22;50720;54.324;18.558;2022-07-24T10:06:24;20.00;99.90
42913;DHT22;50720;54.324;18.558;2022-07-24T10:08:56;20.00;99.90
42913;DHT22;50720;54.324;18.558;2022-07-24T10:11:26;20.10;99.90
42913;DHT22;50720;54.324;18.558;2022-07-24T10:13:57;20.10;99.90
42913;DHT22;50720;54.324;18.558;2022-07-24T10:16:29;20.10;99.90
42913;DHT22;50720;54.324;18.558;2022-07-24T10:19:01;20.00;99.90
42913;DHT22;50720;54.324;18.558;2022-07-24T10:21:35;19.80;99.90
42913;DHT22;50720;54.324;18.558;2022-07-24T10:24:35;19.90;99.90
42913;DHT22;50720;54.324;18.558;2022-07-24T10:27:23;19.90;99.90
42913;DHT22;50720;54.324;18.558;2022-07-24T10:29:55;19.80;99.90
42913;DHT22;50720;54.324;18.558;2022-07-24T10:32:26;19.80;99.90
42913;DHT22;50720;54.324;18.558;2022-07-24T10:35:17;20.00;99.90
42913;DHT22;50720;54.324;18.558;2022-07-24T10:37:55;20.20;99.90
42913;DHT22;50720;54.324;18.558;2022-07-24T10:40:36;20.10;99.90
42913;DHT22;50720;54.324;18.558;2022-07-24T10:43:10;19.70;99.90
42913;DHT22;50720;54.324;18.558;2022-07-24T10:45:41;19.60;99.90
42913;DHT22;50720;54.324;18.558;2022-07-24T10:48:30;19.70;99.90
42913;DHT22;50720;54.324;18.558;2022-07-24T10:51:04;19.90;99.90
42913;DHT22;50720;54.324;18.558;2022-07-24T10:53:53;20.10;99.90
42913;DHT22;50720;54.324;18.558;2022-07-24T10:56:37;20.10;99.90
42913;DHT22;50720;54.324;18.558;2022-07-24T10:59:10;20.00;99.90
42913;DHT22;50720;54.324;18.558;2022-07-24T11:01:42;20.10;99.90
42913;DHT22;50720;54.324;18.558;2022-07-24T11:04:30;20.00;99.90
42913;DHT22;50720;54.324;18.558;2022-07-24T11:07:08;20.00;99.90
42913;DHT22;50720;54.324;18.558;2022-07-24T11:09:55;20.00;99.90
42913;DHT22;50720;54.324;18.558;2022-07-24T11:12:28;19.90;99.90
42913;DHT22;50720;54.324;18.558;2022-07-24T11:15:06;19.90;99.90
42913;DHT22;50720;54.324;18.558;2022-07-24T11:17:54;20.10;99.90
42913;DHT22;50720;54.324;18.558;2022-07-24T11:20:23;20.50;99.90
42913;DHT22;50720;54.324;18.558;2022-07-24T11:22:54;20.80;99.90
42913;DHT22;50720;54.324;18.558;2022-07-24T11:25:27;20.80;99.90
42913;DHT22;50720;54.324;18.558;2022-07-24T11:28:13;20.80;99.90
42913;DHT22;50720;54.324;18.558;2022-07-24T11:30:44;20.80;99.90
42913;DHT22;50720;54.324;18.558;2022-07-24T11:33:20;20.80;99.90
42913;DHT22;50720;54.324;18.558;2022-07-24T11:35:51;21.00;99.90
42913;DHT22;50720;54.324;18.558;2022-07-24T11:38:28;21.20;99.90
42913;DHT22;50720;54.324;18.558;2022-07-24T11:41:04;21.00;99.90
42913;DHT22;50720;54.324;18.558;2022-07-24T11:43:42;20.70;99.90
42913;DHT22;50720;54.324;18.558;2022-07-24T11:46:33;20.50;99.90
42913;DHT22;50720;54.324;18.558;2022-07-24T11:49:03;20.40;99.90
42913;DHT22;50720;54.324;18.558;2022-07-24T11:51:40;20.20;99.90
42913;DHT22;50720;54.324;18.558;2022-07-24T11:54:12;20.00;99.90
42913;DHT22;50720;54.324;18.558;2022-07-24T11:56:42;19.90;99.90
42913;DHT22;50720;54.324;18.558;2022-07-24T11:59:23;19.90;99.90
42913;DHT22;50720;54.324;18.558;2022-07-24T12:02:03;20.10;99.90
42913;DHT22;50720;54.324;18.558;2022-07-24T12:04:34;20.20;99.90
42913;DHT22;50720;54.324;18.558;2022-07-24T12:07:06;20.10;99.90
42913;DHT22;50720;54.324;18.558;2022-07-24T12:09:44;19.90;99.90
42913;DHT22;50720;54.324;18.558;2022-07-24T12:12:22;19.90;99.90
42913;DHT22;50720;54.324;18.558;2022-07-24T12:15:00;19.90;99.90
42913;DHT22;50720;54.324;18.558;2022-07-24T12:17:33;19.80;99.90
42913;DHT22;50720;54.324;18.558;2022-07-24T12:20:04;19.70;99.90
42913;DHT22;50720;54.324;18.558;2022-07-24T12:22:36;19.70;99.90
42913;DHT22;50720;54.324;18.558;2022-07-24T12:25:07;19.70;99.90
42913;DHT22;50720;54.324;18.558;2022-07-24T12:27:40;19.80;99.90
42913;DHT22;50720;54.324;18.558;2022-07-24T12:30:28;19.90;99.90
42913;DHT22;50720;54.324;18.558;2022-07-24T12:33:00;20.00;99.90
42913;DHT22;50720;54.324;18.558;2022-07-24T12:35:31;20.00;99.90
42913;DHT22;50720;54.324;18.558;2022-07-24T12:38:03;19.90;99.90
42913;DHT22;50720;54.324;18.558;2022-07-24T12:40:35;19.90;99.90
42913;DHT22;50720;54.324;18.558;2022-07-24T12:43:10;20.00;99.90
42913;DHT22;50720;54.324;18.558;2022-07-24T12:45:42;20.00;99.90
42913;DHT22;50720;54.324;18.558;2022-07-24T12:48:20;20.20;99.90
42913;DHT22;50720;54.324;18.558;2022-07-24T12:51:00;20.20;99.90
42913;DHT22;50720;54.324;18.558;2022-07-24T12:53:34;20.30;99.90
42913;DHT22;50720;54.324;18.558;2022-07-24T12:56:12;20.30;99.90
42913;DHT22;50720;54.324;18.558;2022-07-24T12:58:57;20.30;99.90
42913;DHT22;50720;54.324;18.558;2022-07-24T13:01:44;20.40;99.90
42913;DHT22;50720;54.324;18.558;2022-07-24T13:04:16;20.40;99.90
42913;DHT22;50720;54.324;18.558;2022-07-24T13:06:49;20.50;99.90
42913;DHT22;50720;54.324;18.558;2022-07-24T13:09:20;20.50;99.90
42913;DHT22;50720;54.324;18.558;2022-07-24T13:11:52;20.40;99.90
42913;DHT22;50720;54.324;18.558;2022-07-24T13:14:24;20.50;99.90
42913;DHT22;50720;54.324;18.558;2022-07-24T13:17:01;20.50;99.90
42913;DHT22;50720;54.324;18.558;2022-07-24T13:19:32;20.40;99.90
42913;DHT22;50720;54.324;18.558;2022-07-24T13:22:01;20.30;99.90
42913;DHT22;50720;54.324;18.558;2022-07-24T13:24:31;20.40;99.90
42913;DHT22;50720;54.324;18.558;2022-07-24T13:27:02;20.40;99.90
42913;DHT22;50720;54.324;18.558;2022-07-24T13:29:31;20.40;99.90
42913;DHT22;50720;54.324;18.558;2022-07-24T13:32:05;20.40;99.90
42913;DHT22;50720;54.324;18.558;2022-07-24T13:34:34;20.40;99.90
42913;DHT22;50720;54.324;18.558;2022-07-24T13:37:05;20.50;99.90
42913;DHT22;50720;54.324;18.558;2022-07-24T13:39:37;20.60;99.90
42913;DHT22;50720;54.324;18.558;2022-07-24T13:42:09;20.50;99.90
42913;DHT22;50720;54.324;18.558;2022-07-24T13:44:38;20.30;99.90
42913;DHT22;50720;54.324;18.558;2022-07-24T13:47:10;20.30;99.90
42913;DHT22;50720;54.324;18.558;2022-07-24T13:49:40;20.40;99.90
42913;DHT22;50720;54.324;18.558;2022-07-24T13:52:10;20.60;99.90
42913;DHT22;50720;54.324;18.558;2022-07-24T13:54:39;20.50;99.90
42913;DHT22;50720;54.324;18.558;2022-07-24T13:57:10;20.50;99.90
42913;DHT22;50720;54.324;18.558;2022-07-24T13:59:41;20.40;99.90
42913;DHT22;50720;54.324;18.558;2022-07-24T14:02:14;20.10;99.90
42913;DHT22;50720;54.324;18.558;2022-07-24T14:04:44;20.00;99.90
42913;DHT22;50720;54.324;18.558;2022-07-24T14:07:14;19.80;99.90
42913;DHT22;50720;54.324;18.558;2022-07-24T14:09:43;19.70;99.90
42913;DHT22;50720;54.324;18.558;2022-07-24T14:12:13;19.60;99.90
42913;DHT22;50720;54.324;18.558;2022-07-24T14:14:43;19.50;99.90
42913;DHT22;50720;54.324;18.558;2022-07-24T14:17:14;19.50;99.90
42913;DHT22;50720;54.324;18.558;2022-07-24T14:19:44;19.40;99.90
42913;DHT22;50720;54.324;18.558;2022-07-24T14:22:14;19.50;99.90
42913;DHT22;50720;54.324;18.558;2022-07-24T14:24:44;19.20;99.90
42913;DHT22;50720;54.324;18.558;2022-07-24T14:27:14;19.20;99.90
42913;DHT22;50720;54.324;18.558;2022-07-24T14:29:44;19.10;99.90
42913;DHT22;50720;54.324;18.558;2022-07-24T14:32:16;19.10;99.90
42913;DHT22;50720;54.324;18.558;2022-07-24T14:34:46;19.00;99.90
42913;DHT22;50720;54.324;18.558;2022-07-24T14:37:17;19.00;99.90
42913;DHT22;50720;54.324;18.558;2022-07-24T14:39:47;19.00;99.90
42913;DHT22;50720;54.324;18.558;2022-07-24T14:42:16;19.00;99.90
42913;DHT22;50720;54.324;18.558;2022-07-24T14:44:49;19.10;99.90
42913;DHT22;50720;54.324;18.558;2022-07-24T14:47:20;19.20;99.90
42913;DHT22;50720;54.324;18.558;2022-07-24T14:49:51;19.40;99.90
42913;DHT22;50720;54.324;18.558;2022-07-24T14:52:23;19.60;99.90
42913;DHT22;50720;54.324;18.558;2022-07-24T14:54:53;19.70;99.90
42913;DHT22;50720;54.324;18.558;2022-07-24T14:57:23;19.70;99.90
42913;DHT22;50720;54.324;18.558;2022-07-24T14:59:52;19.60;99.90
42913;DHT22;50720;54.324;18.558;2022-07-24T15:02:24;19.70;99.90
42913;DHT22;50720;54.324;18.558;2022-07-24T15:04:54;19.70;99.90
42913;DHT22;50720;54.324;18.558;2022-07-24T15:07:24;19.80;99.90
42913;DHT22;50720;54.324;18.558;2022-07-24T15:09:56;20.00;99.90
42913;DHT22;50720;54.324;18.558;2022-07-24T15:12:26;20.10;99.90
42913;DHT22;50720;54.324;18.558;2022-07-24T15:14:56;20.30;99.90
42913;DHT22;50720;54.324;18.558;2022-07-24T15:17:27;20.30;99.90
42913;DHT22;50720;54.324;18.558;2022-07-24T15:19:57;20.60;99.90
42913;DHT22;50720;54.324;18.558;2022-07-24T15:22:27;21.00;99.90
42913;DHT22;50720;54.324;18.558;2022-07-24T15:24:57;21.30;99.90
42913;DHT22;50720;54.324;18.558;2022-07-24T15:27:27;21.50;99.90
42913;DHT22;50720;54.324;18.558;2022-07-24T15:29:57;21.60;99.90
42913;DHT22;50720;54.324;18.558;2022-07-24T15:32:30;21.80;99.90
42913;DHT22;50720;54.324;18.558;2022-07-24T15:35:00;22.00;99.90
42913;DHT22;50720;54.324;18.558;2022-07-24T15:37:31;22.40;99.90
42913;DHT22;50720;54.324;18.558;2022-07-24T15:40:01;23.10;99.90
42913;DHT22;50720;54.324;18.558;2022-07-24T15:42:30;23.30;99.90